sensor_id;sensor_type;location;lat;lon;timestamp;pressure;altitude;pressure_sealevel;temperature;humidity
51439;BME280;38816;51.142;-0.974;2022-10-22T00:00:46;98884.47;;;13.33;100.00
51439;BME280;38816;51.142;-0.974;2022-10-22T00:03:11;98892.22;;;13.31;100.00
51439;BME280;38816;51.142;-0.974;2022-10-22T00:05:37;98899.06;;;13.32;100.00
51439;BME280;38816;51.142;-0.974;2022-10-22T00:08:02;98911.00;;;13.39;100.00
51439;BME280;38816;51.142;-0.974;2022-10-22T00:10:28;98905.97;;;13.33;100.00
51439;BME280;38816;51.142;-0.974;2022-10-22T00:12:53;98917.06;;;13.38;100.00
51439;BME280;38816;51.142;-0.974;2022-10-22T00:15:19;98915.28;;;13.42;100.00
51439;BME280;38816;51.142;-0.974;2022-10-22T00:17:44;98915.38;;;13.36;100.00
51439;BME280;38816;51.142;-0.974;2022-10-22T00:20:11;98915.38;;;13.36;100.00
51439;BME280;38816;51.142;-0.974;2022-10-22T00:22:36;98924.00;;;13.35;100.00
51439;BME280;38816;51.142;-0.974;2022-10-22T00:25:02;98933.38;;;13.40;100.00
51439;BME280;38816;51.142;-0.974;2022-10-22T00:27:27;98934.31;;;13.35;100.00
51439;BME280;38816;51.142;-0.974;2022-10-22T00:29:53;98941.94;;;13.42;100.00
51439;BME280;38816;51.142;-0.974;2022-10-22T00:32:18;98947.03;;;13.46;100.00
51439;BME280;38816;51.142;-0.974;2022-10-22T00:34:44;98955.63;;;13.46;100.00
51439;BME280;38816;51.142;-0.974;2022-10-22T00:37:09;98953.06;;;13.46;100.00
51439;BME280;38816;51.142;-0.974;2022-10-22T00:39:34;98949.66;;;13.44;100.00
51439;BME280;38816;51.142;-0.974;2022-10-22T00:42:00;98959.88;;;13.50;100.00
51439;BME280;38816;51.142;-0.974;2022-10-22T00:47:34;98961.69;;;13.47;100.00
51439;BME280;38816;51.142;-0.974;2022-10-22T00:50:01;98967.72;;;13.44;100.00
51439;BME280;38816;51.142;-0.974;2022-10-22T00:52:27;98955.91;;;13.29;100.00
51439;BME280;38816;51.142;-0.974;2022-10-22T00:54:53;98959.34;;;13.28;100.00
51439;BME280;38816;51.142;-0.974;2022-10-22T00:57:19;98972.22;;;13.33;100.00
51439;BME280;38816;51.142;-0.974;2022-10-22T00:59:46;98975.72;;;13.29;100.00
51439;BME280;38816;51.142;-0.974;2022-10-22T01:02:11;98991.09;;;13.35;100.00
51439;BME280;38816;51.142;-0.974;2022-10-22T01:04:37;99001.44;;;13.35;100.00
51439;BME280;38816;51.142;-0.974;2022-10-22T01:07:02;98991.22;;;13.29;100.00
51439;BME280;38816;51.142;-0.974;2022-10-22T01:09:41;99008.28;;;13.36;100.00
51439;BME280;38816;51.142;-0.974;2022-10-22T01:15:09;99003.22;;;13.30;100.00
51439;BME280;38816;51.142;-0.974;2022-10-22T01:20:40;99016.06;;;13.34;100.00
51439;BME280;38816;51.142;-0.974;2022-10-22T01:26:40;99014.50;;;13.21;100.00
51439;BME280;38816;51.142;-0.974;2022-10-22T01:29:28;99025.69;;;13.18;100.00
51439;BME280;38816;51.142;-0.974;2022-10-22T01:32:00;99035.16;;;13.24;100.00
51439;BME280;38816;51.142;-0.974;2022-10-22T01:34:28;99010.31;;;13.12;100.00
51439;BME280;38816;51.142;-0.974;2022-10-22T01:36:55;99015.66;;;12.99;100.00
51439;BME280;38816;51.142;-0.974;2022-10-22T01:39:22;99031.22;;;12.92;100.00
51439;BME280;38816;51.142;-0.974;2022-10-22T01:41:49;99037.25;;;12.91;100.00
51439;BME280;38816;51.142;-0.974;2022-10-22T01:46:49;99044.09;;;12.94;100.00
51439;BME280;38816;51.142;-0.974;2022-10-22T01:49:30;99040.78;;;12.84;100.00
51439;BME280;38816;51.142;-0.974;2022-10-22T01:54:57;99054.38;;;12.96;100.00
51439;BME280;38816;51.142;-0.974;2022-10-22T01:57:51;99052.53;;;13.07;100.00
51439;BME280;38816;51.142;-0.974;2022-10-22T02:00:19;99059.50;;;13.02;100.00
51439;BME280;38816;51.142;-0.974;2022-10-22T02:03:18;99071.63;;;12.93;100.00
51439;BME280;38816;51.142;-0.974;2022-10-22T02:05:50;99079.38;;;12.90;100.00
51439;BME280;38816;51.142;-0.974;2022-10-22T02:08:23;99076.78;;;12.93;100.00
51439;BME280;38816;51.142;-0.974;2022-10-22T02:10:51;99076.72;;;12.97;100.00
51439;BME280;38816;51.142;-0.974;2022-10-22T02:13:24;99081.97;;;12.90;100.00
51439;BME280;38816;51.142;-0.974;2022-10-22T02:15:51;99069.97;;;12.86;100.00
51439;BME280;38816;51.142;-0.974;2022-10-22T02:18:21;99065.66;;;12.87;100.00
51439;BME280;38816;51.142;-0.974;2022-10-22T02:20:49;99075.13;;;12.88;100.00
51439;BME280;38816;51.142;-0.974;2022-10-22T02:23:15;99093.09;;;12.97;100.00
51439;BME280;38816;51.142;-0.974;2022-10-22T02:25:43;99092.28;;;12.90;100.00
51439;BME280;38816;51.142;-0.974;2022-10-22T02:28:19;99091.47;;;12.88;100.00
51439;BME280;38816;51.142;-0.974;2022-10-22T02:30:51;99106.88;;;12.91;100.00
51439;BME280;38816;51.142;-0.974;2022-10-22T02:33:27;99118.94;;;12.89;100.00
51439;BME280;38816;51.142;-0.974;2022-10-22T02:35:55;99114.78;;;12.78;100.00
51439;BME280;38816;51.142;-0.974;2022-10-22T02:38:23;99118.19;;;12.78;100.00
51439;BME280;38816;51.142;-0.974;2022-10-22T02:40:49;99130.19;;;12.82;100.00
51439;BME280;38816;51.142;-0.974;2022-10-22T02:43:16;99119.06;;;12.79;100.00
51439;BME280;38816;51.142;-0.974;2022-10-22T02:45:42;99132.78;;;12.82;100.00
51439;BME280;38816;51.142;-0.974;2022-10-22T02:48:07;99121.69;;;12.76;100.00
51439;BME280;38816;51.142;-0.974;2022-10-22T02:50:33;99116.56;;;12.71;100.00
51439;BME280;38816;51.142;-0.974;2022-10-22T02:52:58;99123.44;;;12.69;100.00
51439;BME280;38816;51.142;-0.974;2022-10-22T02:55:23;99131.22;;;12.64;100.00
51439;BME280;38816;51.142;-0.974;2022-10-22T02:57:49;99131.47;;;12.43;100.00
51439;BME280;38816;51.142;-0.974;2022-10-22T03:00:15;99140.97;;;12.33;100.00
51439;BME280;38816;51.142;-0.974;2022-10-22T03:02:40;99153.94;;;12.23;100.00
51439;BME280;38816;51.142;-0.974;2022-10-22T03:05:06;99142.03;;;12.06;100.00
51439;BME280;38816;51.142;-0.974;2022-10-22T03:07:32;99146.38;;;12.03;100.00
51439;BME280;38816;51.142;-0.974;2022-10-22T03:09:57;99156.66;;;12.01;100.00
51439;BME280;38816;51.142;-0.974;2022-10-22T03:12:23;99151.59;;;11.94;100.00
51439;BME280;38816;51.142;-0.974;2022-10-22T03:14:48;99171.31;;;11.93;100.00
51439;BME280;38816;51.142;-0.974;2022-10-22T03:17:13;99180.81;;;11.89;100.00
51439;BME280;38816;51.142;-0.974;2022-10-22T03:19:39;99172.25;;;11.78;100.00
51439;BME280;38816;51.142;-0.974;2022-10-22T03:22:09;99186.88;;;11.70;100.00
51439;BME280;38816;51.142;-0.974;2022-10-22T03:24:39;99172.38;;;11.54;100.00
51439;BME280;38816;51.142;-0.974;2022-10-22T03:27:06;99199.78;;;11.62;100.00
51439;BME280;38816;51.142;-0.974;2022-10-22T03:29:34;99200.69;;;11.54;100.00
51439;BME280;38816;51.142;-0.974;2022-10-22T03:32:00;99203.28;;;11.51;100.00
51439;BME280;38816;51.142;-0.974;2022-10-22T03:34:25;99194.72;;;11.43;100.00
51439;BME280;38816;51.142;-0.974;2022-10-22T03:36:52;99198.22;;;11.31;100.00
51439;BME280;38816;51.142;-0.974;2022-10-22T03:39:18;99198.19;;;11.29;100.00
51439;BME280;38816;51.142;-0.974;2022-10-22T03:41:45;99202.50;;;11.23;100.00
51439;BME280;38816;51.142;-0.974;2022-10-22T03:44:11;99204.25;;;11.18;100.00
51439;BME280;38816;51.142;-0.974;2022-10-22T03:46:37;99224.78;;;11.21;100.00
51439;BME280;38816;51.142;-0.974;2022-10-22T03:49:02;99231.66;;;11.20;100.00
51439;BME280;38816;51.142;-0.974;2022-10-22T03:51:28;99227.38;;;11.19;100.00
51439;BME280;38816;51.142;-0.974;2022-10-22T03:53:53;99224.78;;;11.21;100.00
51439;BME280;38816;51.142;-0.974;2022-10-22T03:56:19;99237.66;;;11.31;100.00
51439;BME280;38816;51.142;-0.974;2022-10-22T03:58:44;99241.94;;;11.35;100.00
51439;BME280;38816;51.142;-0.974;2022-10-22T04:04:09;99246.19;;;11.46;100.00
51439;BME280;38816;51.142;-0.974;2022-10-22T04:06:34;99241.06;;;11.39;100.00
51439;BME280;38816;51.142;-0.974;2022-10-22T04:09:00;99242.81;;;11.31;100.00
51439;BME280;38816;51.142;-0.974;2022-10-22T04:11:26;99250.50;;;11.30;100.00
51439;BME280;38816;51.142;-0.974;2022-10-22T04:13:51;99257.38;;;11.25;100.00
51439;BME280;38816;51.142;-0.974;2022-10-22T04:16:21;99260.81;;;11.16;100.00
51439;BME280;38816;51.142;-0.974;2022-10-22T04:18:48;99258.28;;;11.08;100.00
51439;BME280;38816;51.142;-0.974;2022-10-22T04:21:15;99253.13;;;10.98;100.00
51439;BME280;38816;51.142;-0.974;2022-10-22T04:23:49;99261.72;;;10.97;100.00
51439;BME280;38816;51.142;-0.974;2022-10-22T04:26:16;99273.72;;;10.90;100.00
51439;BME280;38816;51.142;-0.974;2022-10-22T04:28:42;99272.00;;;10.84;100.00
51439;BME280;38816;51.142;-0.974;2022-10-22T04:31:14;99279.72;;;10.81;100.00
51439;BME280;38816;51.142;-0.974;2022-10-22T04:33:40;99280.56;;;10.80;100.00
51439;BME280;38816;51.142;-0.974;2022-10-22T04:36:16;99270.31;;;10.68;100.00
51439;BME280;38816;51.142;-0.974;2022-10-22T04:38:45;99287.41;;;10.66;100.00
51439;BME280;38816;51.142;-0.974;2022-10-22T04:41:16;99275.41;;;10.53;100.00
51439;BME280;38816;51.142;-0.974;2022-10-22T04:43:43;99267.72;;;10.42;100.00
51439;BME280;38816;51.142;-0.974;2022-10-22T04:46:10;99286.56;;;10.46;100.00
51439;BME280;38816;51.142;-0.974;2022-10-22T04:48:37;99274.53;;;10.29;100.00
51439;BME280;38816;51.142;-0.974;2022-10-22T04:51:03;99296.78;;;10.35;100.00
51439;BME280;38816;51.142;-0.974;2022-10-22T04:53:29;99284.78;;;10.25;100.00
51439;BME280;38816;51.142;-0.974;2022-10-22T04:55:54;99301.03;;;10.24;100.00
51439;BME280;38816;51.142;-0.974;2022-10-22T04:58:20;99304.47;;;10.23;100.00
51439;BME280;38816;51.142;-0.974;2022-10-22T05:00:45;99278.75;;;10.09;100.00
51439;BME280;38816;51.142;-0.974;2022-10-22T05:03:10;99291.56;;;10.06;100.00
51439;BME280;38816;51.142;-0.974;2022-10-22T05:05:36;99300.97;;;10.07;100.00
51439;BME280;38816;51.142;-0.974;2022-10-22T05:08:01;99302.69;;;10.08;100.00
51439;BME280;38816;51.142;-0.974;2022-10-22T05:10:27;99308.69;;;10.07;100.00
51439;BME280;38816;51.142;-0.974;2022-10-22T05:12:52;99313.84;;;10.10;100.00
51439;BME280;38816;51.142;-0.974;2022-10-22T05:15:18;99316.41;;;10.10;100.00
51439;BME280;38816;51.142;-0.974;2022-10-22T05:17:43;99322.38;;;10.07;100.00
51439;BME280;38816;51.142;-0.974;2022-10-22T05:20:09;99328.38;;;10.09;100.00
51439;BME280;38816;51.142;-0.974;2022-10-22T05:22:34;99323.25;;;10.05;100.00
51439;BME280;38816;51.142;-0.974;2022-10-22T05:25:00;99318.94;;;10.04;100.00
51439;BME280;38816;51.142;-0.974;2022-10-22T05:27:25;99327.50;;;10.03;100.00
51439;BME280;38816;51.142;-0.974;2022-10-22T05:29:51;99338.66;;;10.05;100.00
51439;BME280;38816;51.142;-0.974;2022-10-22T05:32:16;99345.50;;;10.06;100.00
51439;BME280;38816;51.142;-0.974;2022-10-22T05:34:42;99348.91;;;10.05;100.00
51439;BME280;38816;51.142;-0.974;2022-10-22T05:37:07;99361.75;;;10.08;100.00
51439;BME280;38816;51.142;-0.974;2022-10-22T05:39:32;99359.19;;;10.08;100.00
51439;BME280;38816;51.142;-0.974;2022-10-22T05:42:03;99354.06;;;10.05;100.00
51439;BME280;38816;51.142;-0.974;2022-10-22T05:44:29;99347.16;;;9.96;100.00
51439;BME280;38816;51.142;-0.974;2022-10-22T05:46:54;99354.84;;;9.95;100.00
51439;BME280;38816;51.142;-0.974;2022-10-22T05:49:19;99369.41;;;9.99;100.00
51439;BME280;38816;51.142;-0.974;2022-10-22T05:51:45;99368.56;;;9.95;100.00
51439;BME280;38816;51.142;-0.974;2022-10-22T05:54:18;99373.66;;;9.94;100.00
51439;BME280;38816;51.142;-0.974;2022-10-22T05:56:44;99371.94;;;9.88;100.00
51439;BME280;38816;51.142;-0.974;2022-10-22T05:59:10;99365.88;;;9.77;100.00
51439;BME280;38816;51.142;-0.974;2022-10-22T06:01:37;99387.28;;;9.79;100.00
51439;BME280;38816;51.142;-0.974;2022-10-22T06:04:08;99384.69;;;9.74;100.00
51439;BME280;38816;51.142;-0.974;2022-10-22T06:06:48;99386.44;;;9.81;100.00
51439;BME280;38816;51.142;-0.974;2022-10-22T06:09:20;99382.16;;;9.79;100.00
51439;BME280;38816;51.142;-0.974;2022-10-22T06:11:47;99385.59;;;9.82;100.00
51439;BME280;38816;51.142;-0.974;2022-10-22T06:14:13;99401.91;;;9.94;100.00
51439;BME280;38816;51.142;-0.974;2022-10-22T06:16:39;99403.66;;;9.98;100.00
51439;BME280;38816;51.142;-0.974;2022-10-22T06:19:10;99412.22;;;10.03;100.00
51439;BME280;38816;51.142;-0.974;2022-10-22T06:21:35;99407.97;;;10.05;100.00
51439;BME280;38816;51.142;-0.974;2022-10-22T06:24:01;99403.66;;;10.01;100.00
51439;BME280;38816;51.142;-0.974;2022-10-22T06:26:27;99407.13;;;10.06;100.00
51439;BME280;38816;51.142;-0.974;2022-10-22T06:28:53;99412.28;;;10.10;100.00
51439;BME280;38816;51.142;-0.974;2022-10-22T06:31:20;99401.97;;;10.06;100.00
51439;BME280;38816;51.142;-0.974;2022-10-22T06:33:45;99401.94;;;10.03;100.00
51439;BME280;38816;51.142;-0.974;2022-10-22T06:36:13;99419.97;;;10.10;100.00
51439;BME280;38816;51.142;-0.974;2022-10-22T06:38:39;99429.38;;;10.10;100.00
51439;BME280;38816;51.142;-0.974;2022-10-22T06:41:10;99431.06;;;10.08;100.00
51439;BME280;38816;51.142;-0.974;2022-10-22T06:43:36;99436.22;;;10.05;100.00
51439;BME280;38816;51.142;-0.974;2022-10-22T06:46:06;99438.75;;;10.02;100.00
51439;BME280;38816;51.142;-0.974;2022-10-22T06:48:33;99443.91;;;10.02;100.00
51439;BME280;38816;51.142;-0.974;2022-10-22T06:51:04;99451.59;;;10.02;100.00
51439;BME280;38816;51.142;-0.974;2022-10-22T06:53:30;99455.00;;;9.98;100.00
51439;BME280;38816;51.142;-0.974;2022-10-22T06:55:56;99456.69;;;9.94;100.00
51439;BME280;38816;51.142;-0.974;2022-10-22T06:58:21;99475.53;;;9.98;100.00
51439;BME280;38816;51.142;-0.974;2022-10-22T07:00:47;99478.97;;;9.95;100.00
51439;BME280;38816;51.142;-0.974;2022-10-22T07:03:13;99478.00;;;9.85;100.00
51439;BME280;38816;51.142;-0.974;2022-10-22T07:05:39;99476.28;;;9.84;100.00
51439;BME280;38816;51.142;-0.974;2022-10-22T07:08:05;99491.69;;;9.86;100.00
51439;BME280;38816;51.142;-0.974;2022-10-22T07:10:30;99487.38;;;9.77;100.00
51439;BME280;38816;51.142;-0.974;2022-10-22T07:12:57;99506.25;;;9.82;100.00
51439;BME280;38816;51.142;-0.974;2022-10-22T07:15:22;99506.16;;;9.73;100.00
51439;BME280;38816;51.142;-0.974;2022-10-22T07:17:47;99513.88;;;9.76;100.00
51439;BME280;38816;51.142;-0.974;2022-10-22T07:20:13;99508.72;;;9.72;100.00
51439;BME280;38816;51.142;-0.974;2022-10-22T07:22:38;99515.56;;;9.70;100.00
51439;BME280;38816;51.142;-0.974;2022-10-22T07:25:04;99521.53;;;9.70;100.00
51439;BME280;38816;51.142;-0.974;2022-10-22T07:27:29;99536.97;;;9.73;100.00
51439;BME280;38816;51.142;-0.974;2022-10-22T07:29:55;99528.34;;;9.65;100.00
51439;BME280;38816;51.142;-0.974;2022-10-22T07:32:20;99543.78;;;9.71;100.00
51439;BME280;38816;51.142;-0.974;2022-10-22T07:34:46;99543.81;;;9.74;100.00
51439;BME280;38816;51.142;-0.974;2022-10-22T07:37:11;99542.97;;;9.77;100.00
51439;BME280;38816;51.142;-0.974;2022-10-22T07:39:36;99536.97;;;9.73;100.00
51439;BME280;38816;51.142;-0.974;2022-10-22T07:42:02;99545.59;;;9.83;100.00
51439;BME280;38816;51.142;-0.974;2022-10-22T07:44:27;99545.56;;;9.81;100.00
51439;BME280;38816;51.142;-0.974;2022-10-22T07:46:53;99535.31;;;9.81;100.00
51439;BME280;38816;51.142;-0.974;2022-10-22T07:49:18;99560.25;;;9.96;100.00
51439;BME280;38816;51.142;-0.974;2022-10-22T07:51:43;99556.00;;;10.01;100.00
51439;BME280;38816;51.142;-0.974;2022-10-22T07:54:09;99541.41;;;9.94;100.00
51439;BME280;38816;51.142;-0.974;2022-10-22T07:56:34;99556.03;;;10.06;100.00
51439;BME280;38816;51.142;-0.974;2022-10-22T07:58:59;99553.47;;;10.06;100.00
51439;BME280;38816;51.142;-0.974;2022-10-22T08:01:25;99557.75;;;10.07;100.00
51439;BME280;38816;51.142;-0.974;2022-10-22T08:03:50;99562.09;;;10.15;100.00
51439;BME280;38816;51.142;-0.974;2022-10-22T08:06:16;99564.75;;;10.23;100.00
51439;BME280;38816;51.142;-0.974;2022-10-22T08:08:42;99564.81;;;10.29;100.00
51439;BME280;38816;51.142;-0.974;2022-10-22T08:11:09;99567.47;;;10.43;100.00
51439;BME280;38816;51.142;-0.974;2022-10-22T08:13:35;99563.22;;;10.50;100.00
51439;BME280;38816;51.142;-0.974;2022-10-22T08:16:01;99566.69;;;10.55;100.00
51439;BME280;38816;51.142;-0.974;2022-10-22T08:18:27;99571.03;;;10.70;100.00
51439;BME280;38816;51.142;-0.974;2022-10-22T08:20:53;99585.66;;;10.81;100.00
51439;BME280;38816;51.142;-0.974;2022-10-22T08:23:19;99590.88;;;10.95;100.00
51439;BME280;38816;51.142;-0.974;2022-10-22T08:25:44;99579.75;;;10.99;100.00
51439;BME280;38816;51.142;-0.974;2022-10-22T08:28:10;99578.97;;;11.17;100.00
51439;BME280;38816;51.142;-0.974;2022-10-22T08:30:36;99572.97;;;11.29;100.00
51439;BME280;38816;51.142;-0.974;2022-10-22T08:33:03;99577.31;;;11.40;100.00
51439;BME280;38816;51.142;-0.974;2022-10-22T08:35:29;99583.34;;;11.53;100.00
51439;BME280;38816;51.142;-0.974;2022-10-22T08:37:55;99578.22;;;11.67;100.00
51439;BME280;38816;51.142;-0.974;2022-10-22T08:40:28;99582.53;;;11.83;100.00
51439;BME280;38816;51.142;-0.974;2022-10-22T08:48:15;99598.00;;;12.35;100.00
51439;BME280;38816;51.142;-0.974;2022-10-22T08:50:49;99582.50;;;12.57;100.00
51439;BME280;38816;51.142;-0.974;2022-10-22T08:53:18;99594.41;;;12.91;100.00
51439;BME280;38816;51.142;-0.974;2022-10-22T08:55:45;99583.19;;;13.05;100.00
51439;BME280;38816;51.142;-0.974;2022-10-22T08:58:20;99602.06;;;13.22;100.00
51439;BME280;38816;51.142;-0.974;2022-10-22T09:01:00;99608.03;;;13.35;100.00
51439;BME280;38816;51.142;-0.974;2022-10-22T09:03:51;99611.41;;;13.45;100.00
51439;BME280;38816;51.142;-0.974;2022-10-22T09:06:27;99610.63;;;13.35;100.00
51439;BME280;38816;51.142;-0.974;2022-10-22T09:08:56;99608.09;;;13.24;100.00
51439;BME280;38816;51.142;-0.974;2022-10-22T09:11:32;99618.38;;;13.21;100.00
51439;BME280;38816;51.142;-0.974;2022-10-22T09:13:59;99630.47;;;13.16;100.00
51439;BME280;38816;51.142;-0.974;2022-10-22T09:16:54;99627.91;;;13.08;100.00
51439;BME280;38816;51.142;-0.974;2022-10-22T09:24:40;99628.78;;;13.06;100.00
51439;BME280;38816;51.142;-0.974;2022-10-22T09:27:19;99618.44;;;13.04;100.00
51439;BME280;38816;51.142;-0.974;2022-10-22T09:29:47;99622.75;;;13.11;100.00
51439;BME280;38816;51.142;-0.974;2022-10-22T09:32:13;99627.84;;;13.19;100.00
51439;BME280;38816;51.142;-0.974;2022-10-22T09:34:39;99621.84;;;13.23;100.00
51439;BME280;38816;51.142;-0.974;2022-10-22T09:37:07;99640.69;;;13.40;100.00
51439;BME280;38816;51.142;-0.974;2022-10-22T09:39:37;99647.53;;;13.51;100.00
51439;BME280;38816;51.142;-0.974;2022-10-22T09:42:04;99636.31;;;13.61;100.00
51439;BME280;38816;51.142;-0.974;2022-10-22T09:44:33;99637.97;;;13.66;100.00
51439;BME280;38816;51.142;-0.974;2022-10-22T09:47:02;99638.78;;;13.79;100.00
51439;BME280;38816;51.142;-0.974;2022-10-22T09:49:29;99648.16;;;13.91;100.00
51439;BME280;38816;51.142;-0.974;2022-10-22T09:51:58;99645.47;;;14.05;100.00
51439;BME280;38816;51.142;-0.974;2022-10-22T09:54:37;99629.94;;;14.11;100.00
51439;BME280;38816;51.142;-0.974;2022-10-22T09:57:14;99635.03;;;14.20;100.00
51439;BME280;38816;51.142;-0.974;2022-10-22T09:59:47;99638.41;;;14.27;100.00
51439;BME280;38816;51.142;-0.974;2022-10-22T10:02:26;99644.31;;;14.42;100.00
51439;BME280;38816;51.142;-0.974;2022-10-22T10:04:54;99639.94;;;14.54;100.00
51439;BME280;38816;51.142;-0.974;2022-10-22T10:07:26;99646.75;;;14.62;100.00
51439;BME280;38816;51.142;-0.974;2022-10-22T10:09:52;99647.56;;;14.67;100.00
51439;BME280;38816;51.142;-0.974;2022-10-22T10:15:04;99649.22;;;14.75;100.00
51439;BME280;38816;51.142;-0.974;2022-10-22T10:17:51;99652.66;;;14.75;100.00
51439;BME280;38816;51.142;-0.974;2022-10-22T10:26:42;99651.78;;;14.78;100.00
51439;BME280;38816;51.142;-0.974;2022-10-22T10:34:36;99657.28;;;15.26;100.00
51439;BME280;38816;51.142;-0.974;2022-10-22T10:37:17;99663.91;;;15.48;100.00
51439;BME280;38816;51.142;-0.974;2022-10-22T10:39:55;99661.94;;;15.68;100.00
51439;BME280;38816;51.142;-0.974;2022-10-22T11:04:57;99661.31;;;16.11;100.00
51439;BME280;38816;51.142;-0.974;2022-10-22T11:07:32;99660.38;;;16.17;100.00
51439;BME280;38816;51.142;-0.974;2022-10-22T11:12:52;99652.69;;;16.12;100.00
51439;BME280;38816;51.142;-0.974;2022-10-22T11:15:38;99663.69;;;16.27;100.00
51439;BME280;38816;51.142;-0.974;2022-10-22T11:18:17;99661.69;;;16.42;100.00
51439;BME280;38816;51.142;-0.974;2022-10-22T11:23:15;99654.81;;;16.91;100.00
51439;BME280;38816;51.142;-0.974;2022-10-22T11:25:46;99653.78;;;17.00;100.00
51439;BME280;38816;51.142;-0.974;2022-10-22T11:28:26;99648.63;;;16.98;100.00
51439;BME280;38816;51.142;-0.974;2022-10-22T11:31:01;99655.50;;;16.99;100.00
51439;BME280;38816;51.142;-0.974;2022-10-22T11:33:41;99642.63;;;16.93;100.00
51439;BME280;38816;51.142;-0.974;2022-10-22T11:36:10;99661.66;;;16.95;100.00
51439;BME280;38816;51.142;-0.974;2022-10-22T11:38:36;99644.09;;;17.08;100.00
51439;BME280;38816;51.142;-0.974;2022-10-22T11:41:22;99649.91;;;17.20;100.00
51439;BME280;38816;51.142;-0.974;2022-10-22T11:44:09;99653.28;;;17.24;100.00
51439;BME280;38816;51.142;-0.974;2022-10-22T11:46:43;99651.75;;;17.14;100.00
51439;BME280;38816;51.142;-0.974;2022-10-22T11:51:38;99652.56;;;16.71;100.00
51439;BME280;38816;51.142;-0.974;2022-10-22T11:54:27;99668.22;;;16.66;100.00
51439;BME280;38816;51.142;-0.974;2022-10-22T11:59:46;99646.63;;;17.11;100.00
51439;BME280;38816;51.142;-0.974;2022-10-22T12:04:54;99645.69;;;17.57;100.00
51439;BME280;38816;51.142;-0.974;2022-10-22T12:09:56;99656.19;;;17.51;100.00
51439;BME280;38816;51.142;-0.974;2022-10-22T12:12:22;99640.13;;;17.32;100.00
51439;BME280;38816;51.142;-0.974;2022-10-22T12:14:56;99642.34;;;17.08;100.00
51439;BME280;38816;51.142;-0.974;2022-10-22T12:17:22;99648.81;;;16.87;100.00
51439;BME280;38816;51.142;-0.974;2022-10-22T12:19:56;99655.16;;;16.69;100.00
51439;BME280;38816;51.142;-0.974;2022-10-22T12:22:28;99644.25;;;16.51;100.00
51439;BME280;38816;51.142;-0.974;2022-10-22T12:24:56;99641.81;;;16.41;100.00
51439;BME280;38816;51.142;-0.974;2022-10-22T12:27:25;99659.16;;;16.38;100.00
51439;BME280;38816;51.142;-0.974;2022-10-22T12:29:56;99658.31;;;16.37;100.00
51439;BME280;38816;51.142;-0.974;2022-10-22T12:32:22;99659.94;;;16.44;100.00
51439;BME280;38816;51.142;-0.974;2022-10-22T12:34:50;99673.56;;;16.56;100.00
51439;BME280;38816;51.142;-0.974;2022-10-22T12:37:16;99659.53;;;16.66;100.00
51439;BME280;38816;51.142;-0.974;2022-10-22T12:39:44;99659.34;;;16.78;100.00
51439;BME280;38816;51.142;-0.974;2022-10-22T12:42:13;99648.00;;;16.84;100.00
51439;BME280;38816;51.142;-0.974;2022-10-22T12:44:39;99655.56;;;16.98;100.00
51439;BME280;38816;51.142;-0.974;2022-10-22T12:47:06;99652.00;;;17.02;100.00
51439;BME280;38816;51.142;-0.974;2022-10-22T12:49:39;99651.88;;;17.08;100.00
51439;BME280;38816;51.142;-0.974;2022-10-22T12:52:10;99656.94;;;17.14;100.00
51439;BME280;38816;51.142;-0.974;2022-10-22T12:54:38;99645.56;;;17.21;100.00
51439;BME280;38816;51.142;-0.974;2022-10-22T12:57:04;99649.44;;;17.43;100.00
51439;BME280;38816;51.142;-0.974;2022-10-22T12:59:35;99657.53;;;17.70;100.00
51439;BME280;38816;51.142;-0.974;2022-10-22T13:02:08;99646.00;;;17.82;100.00
51439;BME280;38816;51.142;-0.974;2022-10-22T13:04:39;99658.84;;;17.89;100.00
51439;BME280;38816;51.142;-0.974;2022-10-22T13:12:24;99649.06;;;17.18;100.00
51439;BME280;38816;51.142;-0.974;2022-10-22T13:14:49;99650.09;;;17.10;100.00
51439;BME280;38816;51.142;-0.974;2022-10-22T13:17:35;99643.03;;;17.18;100.00
51439;BME280;38816;51.142;-0.974;2022-10-22T13:20:03;99636.66;;;17.33;100.00
51439;BME280;38816;51.142;-0.974;2022-10-22T13:22:40;99638.84;;;17.53;100.00
51439;BME280;38816;51.142;-0.974;2022-10-22T13:27:48;99642.38;;;17.49;100.00
51439;BME280;38816;51.142;-0.974;2022-10-22T13:30:31;99643.44;;;17.40;100.00
51439;BME280;38816;51.142;-0.974;2022-10-22T13:32:59;99637.63;;;17.27;100.00
51439;BME280;38816;51.142;-0.974;2022-10-22T13:35:43;99632.00;;;17.07;100.00
51439;BME280;38816;51.142;-0.974;2022-10-22T13:38:14;99634.78;;;16.98;100.00
51439;BME280;38816;51.142;-0.974;2022-10-22T13:40:42;99623.00;;;16.80;100.00
51439;BME280;38816;51.142;-0.974;2022-10-22T13:43:07;99625.59;;;16.80;100.00
51439;BME280;38816;51.142;-0.974;2022-10-22T13:45:33;99626.47;;;16.80;100.00
51439;BME280;38816;51.142;-0.974;2022-10-22T13:47:58;99634.16;;;16.83;100.00
51439;BME280;38816;51.142;-0.974;2022-10-22T13:50:24;99631.69;;;16.77;100.00
51439;BME280;38816;51.142;-0.974;2022-10-22T13:52:52;99631.78;;;16.71;100.00
51439;BME280;38816;51.142;-0.974;2022-10-22T13:55:24;99627.72;;;16.56;100.00
51439;BME280;38816;51.142;-0.974;2022-10-22T13:57:51;99635.47;;;16.58;100.00
51439;BME280;38816;51.142;-0.974;2022-10-22T14:00:24;99636.38;;;16.55;100.00
51439;BME280;38816;51.142;-0.974;2022-10-22T14:02:53;99635.38;;;16.64;100.00
51439;BME280;38816;51.142;-0.974;2022-10-22T14:05:21;99631.06;;;16.63;100.00
51439;BME280;38816;51.142;-0.974;2022-10-22T14:07:46;99630.25;;;16.59;100.00
51439;BME280;38816;51.142;-0.974;2022-10-22T14:10:18;99632.97;;;16.53;100.00
51439;BME280;38816;51.142;-0.974;2022-10-22T14:12:45;99611.63;;;16.37;100.00
51439;BME280;38816;51.142;-0.974;2022-10-22T14:15:13;99631.47;;;16.40;100.00
51439;BME280;38816;51.142;-0.974;2022-10-22T14:17:41;99635.88;;;16.33;100.00
51439;BME280;38816;51.142;-0.974;2022-10-22T14:20:17;99635.66;;;16.49;100.00